Wetterstation Vordersexau
Wetterdaten: Dezember 2018
Datum Temp. A. Feuchte A. Luftdruck Regen Wind Richtung Taupunkt Windchill Windben
01.12.2018 7,3 C 76 % 1014,4 hPa 0,5 l/m 4,2 km/h O 3,3 C 6,0 C 2,3 km/h
02.12.2018 10,3 C 82 % 1007,2 hPa 8,3 l/m 17,2 km/h S-SW 7,3 C 5,5 C 9,6 km/h
03.12.2018 12,7 C 82 % 1006,7 hPa 7,8 l/m 34,4 km/h W-SW 9,7 C 4,2 C 19,1 km/h
04.12.2018 8,2 C 83 % 1017,5 hPa 5,7 l/m 8,2 km/h W-SW 5,6 C 5,6 C 4,6 km/h
05.12.2018 6,2 C 79 % 1020,4 hPa 0,0 l/m 0,0 km/h O-SO 2,8 C 6,2 C 0,0 km/h
06.12.2018 10,7 C 82 % 1017,9 hPa 1,0 l/m 17,5 km/h SW 7,8 C 5,6 C 9,8 km/h
07.12.2018 11,0 C 79 % 1013,1 hPa 1,0 l/m 27,1 km/h W-SW 7,5 C 3,5 C 15,1 km/h
08.12.2018 7,4 C 79 % 1012,4 hPa 0,5 l/m 35,2 km/h W-SW 4,0 C -3,3 C 19,6 km/h
09.12.2018 7,4 C 83 % 1007,4 hPa 9,8 l/m 22,9 km/h W 4,7 C 0,2 C 12,7 km/h
10.12.2018 5,5 C 81 % 1020,7 hPa 0,5 l/m 5,6 km/h W 2,4 C 3,5 C 3,1 km/h
11.12.2018 2,3 C 83 % 1021,8 hPa 0,0 l/m 0,0 km/h W-NW -0,4 C 2,3 C 0,0 km/h
12.12.2018 -0,8 C 84 % 1019,2 hPa 0,0 l/m 0,4 km/h SO -3,2 C -0,9 C 0,2 km/h
13.12.2018 -0,1 C 80 % 1012,0 hPa 0,0 l/m 0,9 km/h O-NO -3,2 C -0,1 C 0,5 km/h
14.12.2018 -0,8 C 77 % 1015,5 hPa 0,0 l/m 0,5 km/h SO -4,3 C -0,9 C 0,3 km/h
15.12.2018 -0,7 C 77 % 1019,4 hPa 0,0 l/m 2,3 km/h N-NO -4,3 C -1,5 C 1,3 km/h
16.12.2018 0,7 C 83 % 1011,3 hPa 3,1 l/m 0,0 km/h O-NO -1,8 C 0,7 C 0,0 km/h
17.12.2018 3,2 C 80 % 1019,9 hPa 0,5 l/m 6,1 km/h SO 0,2 C 0,9 C 3,4 km/h
18.12.2018 1,7 C 83 % 1020,6 hPa 0,0 l/m 0,0 km/h NO -0,8 C 1,7 C 0,0 km/h
19.12.2018 5,1 C 84 % 1013,5 hPa 2,1 l/m 2,2 km/h S-SO 2,6 C 4,4 C 1,2 km/h
20.12.2018 7,5 C 77 % 1015,8 hPa 0,0 l/m 23,6 km/h W-SW 3,7 C -0,9 C 13,1 km/h
21.12.2018 10,0 C 77 % 1013,4 hPa 3,1 l/m 34,1 km/h W-SW 6,2 C 0,4 C 18,9 km/h
22.12.2018 11,3 C 80 % 1017,3 hPa 4,1 l/m 26,3 km/h W 7,9 C 3,8 C 14,6 km/h
23.12.2018 9,7 C 83 % 1020,2 hPa 4,7 l/m 21,3 km/h W-SW 7,0 C 3,9 C 11,9 km/h
24.12.2018 6,6 C 83 % 1024,3 hPa 5,7 l/m 9,7 km/h N-NO 3,9 C 4,2 C 5,4 km/h
25.12.2018 -1,0 C 82 % 1032,3 hPa 0,0 l/m 0,0 km/h O-NO -3,6 C -1,0 C 0,0 km/h
26.12.2018 -1,8 C 83 % 1029,9 hPa 0,0 l/m 0,0 km/h W -4,2 C -1,8 C 0,0 km/h
27.12.2018 -1,9 C 85 % 1025,1 hPa 0,0 l/m 0,0 km/h O-SO -4,1 C -1,9 C 0,0 km/h
28.12.2018 -0,4 C 83 % 1026,6 hPa 0,0 l/m 0,0 km/h W-NW -2,8 C -0,4 C 0,0 km/h
29.12.2018 0,7 C 84 % 1031,3 hPa 0,0 l/m 0,7 km/h W -1,7 C 0,5 C 0,4 km/h
30.12.2018 2,5 C 86 % 1032,3 hPa 0,0 l/m 0,1 km/h O-NO 0,4 C 2,5 C 0,1 km/h
31.12.2018 4,5 C 80 % 1031,6 hPa 0,5 l/m 0,0 km/h O-SO 1,4 C 4,5 C 0,0 km/h
Min-Datum 14.12.18 01.12.18 09.12.18 17 Tage 01.12.18 - 14.12.18 15.12.18 01.12.18
Min-Zeit 08:30 09:31 04:30 - 00:31 - 08:30 08:30 00:31
Minimum -4,5 C 64 % 1003,0 hPa - 0,0 km/h - -6,8 C -9,7 C 0,0 km/h
Max-Datum 03.12.18 11.12.18 30.12.18 09.12.18 07.12.18 - 03.12.18 06.12.18 07.12.18
Max-Zeit 17:31 03:30 11:29 05:30 20:30 - 13:31 10:31 20:30
Maximum 14,4 C 86 % 1033,9 hPa 9,8 l/m 63,5 km/h
W-SW
- 10,5 C 10,6 C 35,3 km/h
W-SW
Durchschnitt 4,7 C 81 % 1019,1 hPa #59,1 l/m 9,7 km/h W-SW 1,7 C 1,9 C 5,4 km/h

Durchschnitt Minimum Temp.2,2 C
Durchschnitt Maximum Temp.7,2 C
www.sexauwetter.de